createdAt,value
2018-06-30T00:00:45.603Z,8.97
2018-06-30T00:03:16.034Z,8.50
2018-06-30T00:05:45.188Z,8.50
2018-06-30T00:08:14.409Z,8.53
2018-06-30T00:10:43.688Z,8.20
2018-06-30T00:13:13.170Z,8.70
2018-06-30T00:15:42.393Z,8.40
2018-06-30T00:18:11.913Z,8.60
2018-06-30T00:20:41.218Z,8.80
2018-06-30T00:23:10.454Z,8.20
2018-06-30T00:25:39.595Z,8.13
2018-06-30T00:28:08.709Z,8.33
2018-06-30T00:30:38.123Z,8.73
2018-06-30T00:33:07.223Z,8.70
2018-06-30T00:35:36.266Z,8.67
2018-06-30T00:38:05.379Z,8.30
2018-06-30T00:40:34.438Z,8.13
2018-06-30T00:43:03.519Z,8.50
2018-06-30T00:45:32.631Z,8.63
2018-06-30T00:48:01.731Z,8.57
2018-06-30T00:50:30.965Z,8.73
2018-06-30T00:53:00.496Z,8.13
2018-06-30T00:55:30.024Z,8.50
2018-06-30T00:57:59.292Z,8.30
2018-06-30T01:00:28.397Z,8.13
2018-06-30T01:02:57.558Z,8.37
2018-06-30T01:05:26.735Z,8.20
2018-06-30T01:07:56.285Z,8.73
2018-06-30T01:10:25.371Z,8.53
2018-06-30T01:12:54.465Z,9.10
2018-06-30T01:15:23.657Z,10.67
2018-06-30T01:17:52.823Z,8.40
2018-06-30T01:20:22.319Z,9.10
2018-06-30T01:22:51.405Z,8.53
2018-06-30T01:25:20.522Z,8.43
2018-06-30T01:27:49.608Z,9.47
2018-06-30T01:30:18.760Z,7.80
2018-06-30T01:32:47.853Z,8.30
2018-06-30T01:35:16.993Z,8.20
2018-06-30T01:37:46.094Z,8.50
2018-06-30T01:40:15.278Z,8.10
2018-06-30T01:42:44.824Z,8.77
2018-06-30T01:45:13.952Z,8.20
2018-06-30T01:47:43.051Z,7.70
2018-06-30T01:50:12.245Z,7.60
2018-06-30T01:52:41.342Z,7.90
2018-06-30T01:55:10.474Z,8.20
2018-06-30T01:57:39.497Z,7.93
2018-06-30T02:00:08.639Z,8.27
2018-06-30T02:02:37.705Z,7.50
2018-06-30T02:05:06.822Z,8.37
2018-06-30T02:07:35.918Z,7.87
2018-06-30T02:10:05.013Z,7.70
2018-06-30T02:12:34.161Z,8.23
2018-06-30T02:15:03.342Z,7.60
2018-06-30T02:17:33.084Z,8.07
2018-06-30T02:20:02.284Z,7.77
2018-06-30T02:22:31.458Z,7.60
2018-06-30T02:25:01.258Z,8.00
2018-06-30T02:27:30.362Z,8.27
2018-06-30T02:29:59.963Z,8.07
2018-06-30T02:32:29.274Z,8.07
2018-06-30T02:34:58.356Z,8.43
2018-06-30T02:37:27.794Z,8.13
2018-06-30T02:39:56.998Z,7.60
2018-06-30T02:42:26.086Z,7.80
2018-06-30T02:44:55.166Z,7.83
2018-06-30T02:47:24.250Z,8.20
2018-06-30T02:49:54.003Z,8.00
2018-06-30T02:52:23.081Z,7.73
2018-06-30T02:54:52.171Z,7.97
2018-06-30T02:57:21.272Z,8.00
2018-06-30T02:59:50.373Z,7.80
2018-06-30T03:02:19.506Z,7.43
2018-06-30T03:04:48.815Z,7.50
2018-06-30T03:07:17.990Z,7.47
2018-06-30T03:09:47.072Z,8.10
2018-06-30T03:12:16.319Z,7.40
2018-06-30T03:14:45.504Z,7.80
2018-06-30T03:17:14.563Z,7.50
2018-06-30T03:19:43.700Z,7.20
2018-06-30T03:22:12.778Z,7.30
2018-06-30T03:24:41.837Z,7.80
2018-06-30T03:27:11.038Z,7.63
2018-06-30T03:29:40.101Z,7.47
2018-06-30T03:32:09.206Z,6.80
2018-06-30T03:34:38.292Z,7.53
2018-06-30T03:37:07.414Z,7.10
2018-06-30T03:39:36.969Z,7.47
2018-06-30T03:42:06.154Z,7.03
2018-06-30T03:44:35.305Z,7.20
2018-06-30T03:47:04.621Z,6.80
2018-06-30T03:49:33.791Z,7.20
2018-06-30T03:52:02.907Z,7.43
2018-06-30T03:54:32.126Z,7.17
2018-06-30T03:57:01.302Z,7.20
2018-06-30T03:59:30.445Z,6.80
2018-06-30T04:01:59.589Z,7.50
2018-06-30T04:04:28.709Z,7.43
2018-06-30T04:06:57.794Z,7.60
2018-06-30T04:09:26.897Z,7.33
2018-06-30T04:11:55.983Z,6.90
2018-06-30T04:14:25.404Z,7.40
2018-06-30T04:16:54.473Z,8.00
2018-06-30T04:19:23.678Z,7.20
2018-06-30T04:21:52.869Z,7.57
2018-06-30T04:24:22.071Z,7.13
2018-06-30T04:26:51.276Z,7.23
2018-06-30T04:29:20.487Z,6.97
2018-06-30T04:31:49.661Z,7.57
2018-06-30T04:34:18.735Z,7.07
2018-06-30T04:36:47.872Z,7.00
2018-06-30T04:39:17.040Z,7.00
2018-06-30T04:41:46.138Z,7.80
2018-06-30T04:44:15.669Z,7.10
2018-06-30T04:46:44.841Z,8.10
2018-06-30T04:49:13.909Z,7.57
2018-06-30T04:51:43.042Z,6.73
2018-06-30T04:54:12.127Z,7.00
2018-06-30T04:56:41.193Z,7.20
2018-06-30T04:59:10.380Z,6.80
2018-06-30T05:01:39.601Z,6.90
2018-06-30T05:04:09.006Z,7.07
2018-06-30T05:06:38.203Z,6.63
2018-06-30T05:09:08.165Z,7.00
2018-06-30T05:11:37.413Z,7.10
2018-06-30T05:14:06.630Z,6.60
2018-06-30T05:16:36.105Z,7.50
2018-06-30T05:19:05.222Z,6.77
2018-06-30T05:21:34.472Z,6.53
2018-06-30T05:24:03.627Z,7.90
2018-06-30T05:26:32.740Z,7.00
2018-06-30T05:29:01.788Z,9.60
2018-06-30T05:31:30.939Z,7.57
2018-06-30T05:34:00.015Z,6.90
2018-06-30T05:36:29.117Z,7.17
2018-06-30T05:38:58.541Z,6.47
2018-06-30T05:41:27.644Z,7.90
2018-06-30T05:43:56.722Z,6.90
2018-06-30T05:46:25.800Z,7.30
2018-06-30T05:48:55.017Z,6.20
2018-06-30T05:51:24.105Z,6.60
2018-06-30T05:53:53.249Z,7.00
2018-06-30T05:56:22.402Z,6.57
2018-06-30T05:58:52.066Z,6.90
2018-06-30T06:01:21.173Z,6.90
2018-06-30T06:03:50.313Z,6.30
2018-06-30T06:06:19.362Z,5.90
2018-06-30T06:08:48.478Z,5.83
2018-06-30T06:11:17.557Z,6.70
2018-06-30T06:13:46.740Z,6.03
2018-06-30T06:16:15.905Z,5.90
2018-06-30T06:18:45.122Z,6.60
2018-06-30T06:21:14.642Z,6.43
2018-06-30T06:23:44.558Z,6.43
2018-06-30T06:26:13.683Z,9.97
2018-06-30T06:28:42.843Z,6.03
2018-06-30T06:31:12.041Z,6.23
2018-06-30T06:33:41.283Z,6.07
2018-06-30T06:36:10.498Z,5.93
2018-06-30T06:38:39.799Z,6.53
2018-06-30T06:41:08.972Z,6.33
2018-06-30T06:43:38.137Z,5.33
2018-06-30T06:46:07.334Z,5.27
2018-06-30T06:48:36.446Z,5.90
2018-06-30T06:51:05.581Z,4.70
2018-06-30T06:53:34.737Z,4.27
2018-06-30T06:56:03.837Z,3.80
2018-06-30T06:58:32.877Z,4.40
2018-06-30T07:01:02.051Z,4.00
2018-06-30T07:03:31.910Z,4.50
2018-06-30T07:06:01.149Z,4.50
2018-06-30T07:08:30.262Z,4.80
2018-06-30T07:10:59.458Z,4.10
2018-06-30T07:13:28.524Z,4.33
2018-06-30T07:15:57.645Z,4.07
2018-06-30T07:18:26.761Z,4.63
2018-06-30T07:20:56.041Z,4.07
2018-06-30T07:23:25.141Z,3.90
2018-06-30T07:25:54.281Z,3.90
2018-06-30T07:28:23.530Z,4.20
2018-06-30T07:30:52.634Z,4.50
2018-06-30T07:33:21.800Z,4.77
2018-06-30T07:35:50.925Z,6.97
2018-06-30T07:38:20.015Z,4.33
2018-06-30T07:40:49.193Z,5.23
2018-06-30T07:43:18.373Z,4.30
2018-06-30T07:45:47.455Z,4.10
2018-06-30T07:48:16.660Z,4.40
2018-06-30T07:50:45.811Z,4.33
2018-06-30T07:53:15.019Z,4.37
2018-06-30T07:55:44.203Z,5.37
2018-06-30T07:58:13.315Z,4.47
2018-06-30T08:00:42.623Z,4.70
2018-06-30T08:03:11.805Z,4.10
2018-06-30T08:05:41.002Z,4.00
2018-06-30T08:08:10.074Z,4.77
2018-06-30T08:10:39.214Z,3.77
2018-06-30T08:13:08.534Z,4.00
2018-06-30T08:15:37.756Z,4.50
2018-06-30T08:18:06.998Z,4.53
2018-06-30T08:20:36.500Z,4.17
2018-06-30T08:23:05.817Z,4.30
2018-06-30T08:25:35.968Z,4.30
2018-06-30T08:28:06.422Z,4.20
2018-06-30T08:30:35.650Z,4.67
2018-06-30T08:33:04.715Z,4.40
2018-06-30T08:35:33.858Z,4.77
2018-06-30T08:38:02.974Z,4.20
2018-06-30T08:40:32.122Z,4.60
2018-06-30T08:43:01.181Z,5.40
2018-06-30T08:45:42.907Z,4.53
2018-06-30T08:48:12.102Z,4.73
2018-06-30T08:50:41.298Z,4.13
2018-06-30T08:53:11.221Z,4.27
2018-06-30T08:55:40.446Z,5.20
2018-06-30T08:58:09.520Z,4.70
2018-06-30T09:00:38.769Z,5.10
2018-06-30T09:03:07.874Z,6.30
2018-06-30T09:05:37.104Z,5.00
2018-06-30T09:08:06.505Z,4.90
2018-06-30T09:10:35.711Z,4.50
2018-06-30T09:13:04.810Z,4.50
2018-06-30T09:15:33.958Z,4.10
2018-06-30T09:18:03.059Z,4.20
2018-06-30T09:20:32.187Z,4.23
2018-06-30T09:23:01.385Z,5.20
2018-06-30T09:25:30.481Z,4.50
2018-06-30T09:27:59.484Z,4.60
2018-06-30T09:30:28.651Z,4.40
2018-06-30T09:32:58.183Z,4.77
2018-06-30T09:35:27.347Z,5.07
2018-06-30T09:37:56.389Z,4.70
2018-06-30T09:40:25.431Z,4.87
2018-06-30T09:42:54.559Z,4.60
2018-06-30T09:45:24.090Z,4.10
2018-06-30T09:47:53.658Z,4.90
2018-06-30T09:50:22.767Z,4.73
2018-06-30T09:52:51.863Z,3.90
2018-06-30T09:55:20.962Z,4.80
2018-06-30T09:57:50.157Z,4.50
2018-06-30T10:00:24.691Z,4.63
2018-06-30T10:02:53.780Z,4.60
2018-06-30T10:05:22.966Z,4.67
2018-06-30T10:07:52.117Z,4.77
2018-06-30T10:10:21.291Z,4.63
2018-06-30T10:12:50.627Z,4.77
2018-06-30T10:15:19.763Z,4.50
2018-06-30T10:17:48.817Z,5.07
2018-06-30T10:20:17.955Z,3.70
2018-06-30T10:22:47.044Z,4.37
2018-06-30T10:25:16.182Z,4.93
2018-06-30T10:27:45.340Z,5.87
2018-06-30T10:30:14.478Z,4.67
2018-06-30T10:32:43.657Z,7.37
2018-06-30T10:35:12.849Z,4.47
2018-06-30T10:37:41.950Z,5.27
2018-06-30T10:40:11.236Z,4.80
2018-06-30T10:42:40.282Z,3.60
2018-06-30T10:45:09.478Z,4.40
2018-06-30T10:47:38.523Z,4.43
2018-06-30T10:50:07.941Z,4.50
2018-06-30T10:52:37.042Z,4.30
2018-06-30T10:55:06.130Z,4.13
2018-06-30T10:57:35.410Z,5.20
2018-06-30T11:00:04.938Z,4.60
2018-06-30T11:02:34.018Z,3.90
2018-06-30T11:05:03.097Z,4.70
2018-06-30T11:07:32.182Z,5.50
2018-06-30T11:10:01.725Z,4.20
2018-06-30T11:12:30.794Z,4.20
2018-06-30T11:14:59.978Z,5.10
2018-06-30T11:17:29.094Z,4.20
2018-06-30T11:19:58.309Z,4.57
2018-06-30T11:22:27.867Z,4.87
2018-06-30T11:24:56.885Z,4.20
2018-06-30T11:27:26.020Z,4.10
2018-06-30T11:29:55.206Z,4.27
2018-06-30T11:32:24.306Z,4.30
2018-06-30T11:34:53.451Z,4.33
2018-06-30T11:37:22.557Z,4.60
2018-06-30T11:39:51.681Z,4.63
2018-06-30T11:42:20.778Z,5.23
2018-06-30T11:44:49.857Z,4.73
2018-06-30T11:47:19.159Z,5.10
2018-06-30T11:49:48.379Z,4.13
2018-06-30T11:52:17.477Z,4.10
2018-06-30T11:54:46.541Z,4.70
2018-06-30T11:57:15.642Z,4.30
2018-06-30T11:59:44.806Z,4.40
2018-06-30T12:02:13.920Z,4.20
2018-06-30T12:04:43.052Z,4.60
2018-06-30T12:07:12.961Z,4.40
2018-06-30T12:09:42.140Z,4.87
2018-06-30T12:12:11.254Z,4.67
2018-06-30T12:14:40.340Z,4.40
2018-06-30T12:17:09.466Z,4.47
2018-06-30T12:19:38.564Z,4.27
2018-06-30T12:22:07.646Z,4.80
2018-06-30T12:24:36.783Z,4.60
2018-06-30T12:27:05.914Z,4.50
2018-06-30T12:29:35.115Z,4.70
2018-06-30T12:32:04.286Z,4.00
2018-06-30T12:34:33.261Z,5.67
2018-06-30T12:37:02.360Z,4.43
2018-06-30T12:39:31.433Z,4.60
2018-06-30T12:42:00.606Z,4.80
2018-06-30T12:44:29.654Z,4.40
2018-06-30T12:46:58.747Z,4.93
2018-06-30T12:49:27.845Z,4.90
2018-06-30T12:51:56.900Z,4.23
2018-06-30T12:54:26.091Z,4.37
2018-06-30T12:56:55.754Z,5.13
2018-06-30T12:59:24.849Z,4.27
2018-06-30T13:01:54.056Z,4.37
2018-06-30T13:04:23.096Z,4.13
2018-06-30T13:06:52.197Z,4.87
2018-06-30T13:09:21.276Z,4.47
2018-06-30T13:11:50.992Z,5.07
2018-06-30T13:14:20.264Z,5.10
2018-06-30T13:16:49.472Z,4.40
2018-06-30T13:19:18.602Z,5.20
2018-06-30T13:21:47.847Z,4.67
2018-06-30T13:24:17.008Z,4.20
2018-06-30T13:26:46.387Z,5.17
2018-06-30T13:29:15.595Z,4.30
2018-06-30T13:31:44.784Z,5.00
2018-06-30T13:34:13.933Z,4.30
2018-06-30T13:36:42.957Z,4.80
2018-06-30T13:39:14.025Z,4.90
2018-06-30T13:41:43.645Z,4.80
2018-06-30T13:44:13.231Z,4.40
2018-06-30T13:46:42.305Z,4.60
2018-06-30T13:49:11.472Z,4.40
2018-06-30T13:51:40.493Z,5.50
2018-06-30T13:54:09.727Z,4.77
2018-06-30T13:56:38.828Z,4.00
2018-06-30T13:59:08.244Z,4.70
2018-06-30T14:01:37.510Z,4.20
2018-06-30T14:04:06.661Z,4.70
2018-06-30T14:06:35.792Z,4.77
2018-06-30T14:09:07.942Z,4.90
2018-06-30T14:11:37.406Z,4.53
2018-06-30T14:14:06.851Z,4.57
2018-06-30T14:16:36.304Z,4.37
2018-06-30T14:19:05.431Z,4.73
2018-06-30T14:21:34.476Z,4.63
2018-06-30T14:24:03.602Z,4.37
2018-06-30T14:26:32.689Z,4.97
2018-06-30T14:29:01.893Z,4.50
2018-06-30T14:31:31.015Z,4.27
2018-06-30T14:34:00.279Z,4.70
2018-06-30T14:36:29.406Z,4.63
2018-06-30T14:38:58.451Z,4.57
2018-06-30T14:41:27.591Z,4.60
2018-06-30T14:43:56.890Z,4.50
2018-06-30T14:46:25.985Z,4.23
2018-06-30T14:48:55.888Z,4.20
2018-06-30T14:51:25.005Z,4.57
2018-06-30T14:53:54.129Z,4.90
2018-06-30T14:56:23.333Z,4.00
2018-06-30T14:58:52.824Z,4.10
2018-06-30T15:01:22.013Z,4.33
2018-06-30T15:03:51.205Z,3.90
2018-06-30T15:06:20.318Z,5.13
2018-06-30T15:08:49.370Z,4.30
2018-06-30T15:11:18.551Z,3.90
2018-06-30T15:13:48.028Z,4.00
2018-06-30T15:16:17.358Z,4.37
2018-06-30T15:18:46.474Z,4.30
2018-06-30T15:21:15.493Z,4.30
2018-06-30T15:23:44.632Z,4.03
2018-06-30T15:26:14.525Z,3.93
2018-06-30T15:28:43.690Z,4.60
2018-06-30T15:31:12.769Z,4.50
2018-06-30T15:33:41.948Z,4.23
2018-06-30T15:36:11.209Z,3.83
2018-06-30T15:38:40.102Z,4.20
2018-06-30T15:41:09.199Z,4.60
2018-06-30T15:43:38.496Z,5.33
2018-06-30T15:46:07.762Z,4.30
2018-06-30T15:48:36.888Z,4.40
2018-06-30T15:51:06.053Z,4.60
2018-06-30T15:53:35.165Z,3.80
2018-06-30T15:56:04.586Z,4.37
2018-06-30T15:58:34.246Z,4.03
2018-06-30T16:01:03.323Z,4.20
2018-06-30T16:03:33.274Z,4.20
2018-06-30T16:06:02.543Z,3.80
2018-06-30T16:08:31.631Z,4.50
2018-06-30T16:11:00.698Z,4.13
2018-06-30T16:13:30.170Z,5.03
2018-06-30T16:15:59.302Z,4.93
2018-06-30T16:18:28.330Z,4.77
2018-06-30T16:20:57.587Z,4.40
2018-06-30T16:23:26.698Z,3.97
2018-06-30T16:25:55.880Z,4.70
2018-06-30T16:28:24.999Z,4.20
2018-06-30T16:30:54.163Z,3.93
2018-06-30T16:33:23.189Z,4.70
2018-06-30T16:35:52.374Z,4.30
2018-06-30T16:38:21.430Z,4.60
2018-06-30T16:40:50.521Z,4.30
2018-06-30T16:43:19.661Z,4.80
2018-06-30T16:45:48.770Z,4.53
2018-06-30T16:48:17.896Z,4.97
2018-06-30T16:50:47.582Z,4.93
2018-06-30T16:53:16.723Z,4.93
2018-06-30T16:55:45.788Z,5.20
2018-06-30T16:58:14.891Z,4.40
2018-06-30T17:00:44.042Z,5.00
2018-06-30T17:03:13.437Z,5.07
2018-06-30T17:05:42.532Z,4.87
2018-06-30T17:08:12.851Z,5.00
2018-06-30T17:10:42.101Z,5.20
2018-06-30T17:13:11.533Z,5.37
2018-06-30T17:15:40.633Z,5.00
2018-06-30T17:18:09.759Z,5.50
2018-06-30T17:20:38.975Z,5.60
2018-06-30T17:23:08.146Z,5.13
2018-06-30T17:25:37.198Z,5.40
2018-06-30T17:28:06.340Z,5.60
2018-06-30T17:30:35.433Z,4.90
2018-06-30T17:33:04.994Z,5.20
2018-06-30T17:35:34.460Z,4.97
2018-06-30T17:38:03.614Z,6.63
2018-06-30T17:40:32.809Z,5.20
2018-06-30T17:43:01.942Z,5.67
2018-06-30T17:45:31.021Z,5.70
2018-06-30T17:48:00.089Z,6.10
2018-06-30T17:50:29.338Z,6.40
2018-06-30T17:52:58.461Z,6.83
2018-06-30T17:55:27.542Z,6.40
2018-06-30T17:57:56.658Z,7.50
2018-06-30T18:00:25.789Z,6.30
2018-06-30T18:02:54.869Z,6.43
2018-06-30T18:05:23.988Z,7.07
2018-06-30T18:07:53.076Z,6.50
2018-06-30T18:10:22.230Z,6.60
2018-06-30T18:12:51.398Z,6.53
2018-06-30T18:15:20.636Z,6.63
2018-06-30T18:17:49.682Z,6.17
2018-06-30T18:20:18.763Z,6.13
2018-06-30T18:22:47.827Z,6.13
2018-06-30T18:25:16.901Z,6.27
2018-06-30T18:27:45.951Z,7.33
2018-06-30T18:30:15.072Z,5.93
2018-06-30T18:32:44.162Z,6.53
2018-06-30T18:35:13.281Z,6.67
2018-06-30T18:37:42.461Z,7.53
2018-06-30T18:40:11.522Z,6.67
2018-06-30T18:42:40.726Z,6.63
2018-06-30T18:45:09.851Z,6.70
2018-06-30T18:47:38.972Z,6.80
2018-06-30T18:50:08.120Z,6.57
2018-06-30T18:52:37.307Z,6.60
2018-06-30T18:55:06.385Z,6.90
2018-06-30T18:57:35.573Z,6.83
2018-06-30T19:00:05.583Z,7.50
2018-06-30T19:02:34.757Z,5.83
2018-06-30T19:05:03.841Z,6.57
2018-06-30T19:07:32.985Z,6.13
2018-06-30T19:10:02.071Z,6.93
2018-06-30T19:12:31.261Z,6.33
2018-06-30T19:15:00.321Z,6.40
2018-06-30T19:17:29.422Z,7.53
2018-06-30T19:19:58.558Z,6.90
2018-06-30T19:22:27.746Z,6.97
2018-06-30T19:24:56.870Z,6.90
2018-06-30T19:27:26.413Z,7.10
2018-06-30T19:29:55.621Z,7.00
2018-06-30T19:32:24.785Z,6.80
2018-06-30T19:34:53.838Z,6.30
2018-06-30T19:37:22.966Z,7.13
2018-06-30T19:39:52.047Z,6.67
2018-06-30T19:42:21.227Z,6.80
2018-06-30T19:44:50.187Z,6.90
2018-06-30T19:47:19.232Z,7.43
2018-06-30T19:49:48.356Z,7.20
2018-06-30T19:52:17.390Z,5.90
2018-06-30T19:54:46.477Z,6.67
2018-06-30T19:57:15.715Z,6.90
2018-06-30T19:59:44.938Z,6.30
2018-06-30T20:02:14.069Z,6.33
2018-06-30T20:04:43.289Z,5.93
2018-06-30T20:07:12.361Z,5.50
2018-06-30T20:09:41.456Z,5.97
2018-06-30T20:12:10.598Z,6.17
2018-06-30T20:14:39.776Z,6.07
2018-06-30T20:17:08.897Z,6.23
2018-06-30T20:19:38.097Z,5.80
2018-06-30T20:22:07.242Z,4.90
2018-06-30T20:24:36.628Z,5.70
2018-06-30T20:27:06.073Z,5.27
2018-06-30T20:29:34.938Z,4.70
2018-06-30T20:32:04.057Z,6.13
2018-06-30T20:34:33.159Z,4.83
2018-06-30T20:37:02.238Z,5.20
2018-06-30T20:39:31.373Z,5.27
2018-06-30T20:42:00.482Z,5.47
2018-06-30T20:44:29.576Z,4.93
2018-06-30T20:46:58.758Z,4.67
2018-06-30T20:49:27.901Z,6.47
2018-06-30T20:51:57.017Z,7.00
2018-06-30T20:54:26.111Z,8.83
2018-06-30T20:56:56.386Z,5.27
2018-06-30T20:59:25.560Z,5.20
2018-06-30T21:01:54.623Z,5.50
2018-06-30T21:04:23.683Z,5.20
2018-06-30T21:06:52.867Z,6.30
2018-06-30T21:09:21.992Z,6.03
2018-06-30T21:11:51.097Z,5.80
2018-06-30T21:14:20.210Z,4.53
2018-06-30T21:16:49.420Z,4.90
2018-06-30T21:19:18.543Z,4.20
2018-06-30T21:21:47.677Z,3.80
2018-06-30T21:24:17.274Z,4.80
2018-06-30T21:26:46.418Z,4.37
2018-06-30T21:29:15.488Z,4.10
2018-06-30T21:31:44.608Z,3.70
2018-06-30T21:34:13.689Z,3.27
2018-06-30T21:36:42.875Z,4.10
2018-06-30T21:39:13.075Z,3.23
2018-06-30T21:41:42.161Z,3.50
2018-06-30T21:44:11.354Z,3.40
2018-06-30T21:46:40.806Z,2.70
2018-06-30T21:49:10.012Z,3.27
2018-06-30T21:51:39.130Z,3.20
2018-06-30T21:54:09.250Z,4.00
2018-06-30T21:56:38.402Z,3.60
2018-06-30T21:59:07.541Z,4.00
2018-06-30T22:01:36.593Z,4.43
2018-06-30T22:04:05.798Z,4.47
2018-06-30T22:06:35.293Z,5.00
2018-06-30T22:09:07.777Z,4.30
2018-06-30T22:11:37.081Z,4.17
2018-06-30T22:14:06.359Z,4.67
2018-06-30T22:16:35.559Z,3.50
2018-06-30T22:19:04.656Z,4.60
2018-06-30T22:21:33.754Z,3.30
2018-06-30T22:24:02.862Z,2.60
2018-06-30T22:26:32.040Z,2.80
2018-06-30T22:29:01.018Z,2.67
2018-06-30T22:31:30.130Z,2.70
2018-06-30T22:33:59.262Z,3.67
2018-06-30T22:36:28.381Z,3.20
2018-06-30T22:38:57.550Z,3.20
2018-06-30T22:41:26.673Z,3.00
2018-06-30T22:43:55.738Z,3.30
2018-06-30T22:46:24.853Z,3.00
2018-06-30T22:48:53.902Z,3.47
2018-06-30T22:51:23.005Z,3.43
2018-06-30T22:53:52.298Z,3.03
2018-06-30T22:56:22.244Z,2.67
2018-06-30T22:58:51.371Z,3.03
2018-06-30T23:01:20.514Z,3.20
2018-06-30T23:03:49.630Z,3.30
2018-06-30T23:06:18.782Z,2.80
2018-06-30T23:08:54.197Z,2.40
2018-06-30T23:11:24.269Z,2.20
2018-06-30T23:13:53.354Z,2.30
2018-06-30T23:16:22.469Z,2.10
2018-06-30T23:18:51.531Z,2.00
2018-06-30T23:21:20.643Z,2.00
2018-06-30T23:23:49.754Z,2.23
2018-06-30T23:26:18.843Z,1.97
2018-06-30T23:28:47.981Z,2.20
2018-06-30T23:31:17.022Z,2.03
2018-06-30T23:33:46.126Z,2.37
2018-06-30T23:36:15.577Z,2.00
2018-06-30T23:38:44.729Z,2.00
2018-06-30T23:41:13.780Z,2.43
2018-06-30T23:43:42.865Z,2.27
2018-06-30T23:46:11.946Z,2.63
2018-06-30T23:48:41.026Z,2.37
2018-06-30T23:51:10.196Z,2.60
2018-06-30T23:53:39.304Z,2.60
2018-06-30T23:56:08.489Z,3.00
2018-06-30T23:58:37.600Z,2.60
